Van Horn, Texas
Current Conditions -  °F | °C
As of 1:51 PM on Monday 24 Nov 2014 (Local Time) from KGDP Reporting Station
Clear Clear  
Wind Chill: 51°   Ceiling: Unl
Heat Index: 51°   Visibility: 10mi
Dew Point: -1°   Wind: 36mph
Humidity: 12%   Direction: 260°W
Pressure: 30.04"   Gusts: 43mph
Location:  31.04°N, 104.83°W
Report Text: KGDP 241951Z AUTO 26031G37KT 10SM CLR 11/M18 A3004 RMK AO2 PK WND 25037/1949 SLP152 T01061183
Loading
Personal Weather Stations






























Interactive Weather Map New forecast layout! Learn more

10-Day Weather Forecast

Advertisements
Track Severe Weather on mobile